Oak Island, NC

7:49 AM EDT on July 07, 2015 (GMT -0400)
Oak Island - Marsh Hen | | Change Station
CLOSE
Current Station
Personal Weather Station
Location: Oak Island, NC
Elevation: 3 ft
Nearby Weather Stations

Elev 3 ft 33.91 °N, 78.14 °W | Updated 1 minute ago

Partly Cloudy
Partly Cloudy
80.1 °F
Feels Like 85 °F
N
0.0
Wind Variable Wind from NE
Gusts 6.0 mph

Today
High -- | Low -- °F
--% Chance of Precip.
Yesterday
High -- | Low -- °F
Precip. -- in
6:07 AM 8:26 PM
Waning Gibbous, 65% visible
Pressure 30.14 in
Visibility 10.0 miles
Clouds Clear
Heat Index 85 °F
Dew Point 75 °F
Humidity 85%
Rainfall 0.00 in
Snow Depth Not available.
UV 0 out of 12
Pollen 3.30 out of 12
Air Quality Not available.
Flu Activity Not available.
METAR KILM 071053Z 20003KT 10SM CLR 24/23 A3014 RMK AO2 SLP205 T02390228

More Conditions Fewer Conditions

Pressure 30.14 in
Visibility 10.0 miles
Clouds Clear
Heat Index 85 °F
Dew Point 75 °F
Humidity 85%
Rainfall 0.00 in
Snow Depth Not available.
UV 0 out of 12
Pollen 3.30 out of 12
Air Quality Not available.
Flu Activity Not available.
METAR KILM 071053Z 20003KT 10SM CLR 24/23 A3014 RMK AO2 SLP205 T02390228

More Conditions Fewer Conditions

10-Day Weather Forecast

×

Almanac

Astronomy

Jul. 07, 2015 Rise Set
Actual Time
Civil Twilight
Nautical Twilight
Astronomical Twilight
Moon
Length of Visible Light
Length of Day
Tomorrow will be .
, % of the Moon is Illuminated

Today's Extremes

State Highs State Lows

Community

WunderPhotos

Upload Photos

1,835,770 photos uploaded!

WunderBlogs® & News

Nearby

Air Quality

  Air Quality AQ Index Pollutant
Not available.

Snow Depth

Station Depth Elevation

Earthquake Activity

City Distance Mag. Time & Date
Minimum magnitude displayed is 2.5.

Coastal Water Temperatures

Place Temperature

Stations

Nearby Weather Stations

Station Location Temp. Windchill Dew Point Humidity Wind Precip. Elev Updated Type